sensor_id;sensor_type;location;lat;lon;timestamp;pressure;altitude;pressure_sealevel;temperature;humidity
49709;BME280;35601;55.902;13.606;2022-08-25T00:01:57;101639.36;;;15.74;63.77
49709;BME280;35601;55.902;13.606;2022-08-25T00:04:25;101638.99;;;15.87;63.13
49709;BME280;35601;55.902;13.606;2022-08-25T00:06:52;101640.35;;;15.25;64.11
49709;BME280;35601;55.902;13.606;2022-08-25T00:09:22;101639.88;;;15.65;64.49
49709;BME280;35601;55.902;13.606;2022-08-25T00:11:51;101638.44;;;15.49;65.06
49709;BME280;35601;55.902;13.606;2022-08-25T00:14:21;101635.66;;;15.31;64.91
49709;BME280;35601;55.902;13.606;2022-08-25T00:16:48;101631.56;;;15.63;64.39
49709;BME280;35601;55.902;13.606;2022-08-25T00:19:18;101628.99;;;15.40;64.82
49709;BME280;35601;55.902;13.606;2022-08-25T00:21:46;101629.16;;;15.14;65.81
49709;BME280;35601;55.902;13.606;2022-08-25T00:24:15;101625.55;;;15.33;65.06
49709;BME280;35601;55.902;13.606;2022-08-25T00:26:46;101625.50;;;15.33;64.67
49709;BME280;35601;55.902;13.606;2022-08-25T00:29:14;101626.29;;;15.28;64.93
49709;BME280;35601;55.902;13.606;2022-08-25T00:31:42;101622.68;;;15.00;65.56
49709;BME280;35601;55.902;13.606;2022-08-25T00:34:12;101622.19;;;14.66;67.08
49709;BME280;35601;55.902;13.606;2022-08-25T00:36:40;101620.65;;;14.92;65.83
49709;BME280;35601;55.902;13.606;2022-08-25T00:39:08;101624.78;;;15.24;65.56
49709;BME280;35601;55.902;13.606;2022-08-25T00:41:37;101624.89;;;14.91;65.90
49709;BME280;35601;55.902;13.606;2022-08-25T00:44:07;101625.95;;;14.96;65.58
49709;BME280;35601;55.902;13.606;2022-08-25T00:46:37;101626.26;;;14.91;66.56
49709;BME280;35601;55.902;13.606;2022-08-25T00:49:08;101626.22;;;15.23;66.79
49709;BME280;35601;55.902;13.606;2022-08-25T00:51:41;101628.75;;;14.88;67.42
49709;BME280;35601;55.902;13.606;2022-08-25T00:54:15;101629.60;;;14.91;67.52
49709;BME280;35601;55.902;13.606;2022-08-25T00:56:43;101629.66;;;14.76;68.07
49709;BME280;35601;55.902;13.606;2022-08-25T00:59:12;101630.45;;;14.88;67.36
49709;BME280;35601;55.902;13.606;2022-08-25T01:01:39;101626.88;;;14.92;67.73
49709;BME280;35601;55.902;13.606;2022-08-25T01:04:06;101620.89;;;15.06;67.59
49709;BME280;35601;55.902;13.606;2022-08-25T01:06:36;101623.32;;;15.12;67.51
49709;BME280;35601;55.902;13.606;2022-08-25T01:09:05;101624.90;;;15.34;67.78
49709;BME280;35601;55.902;13.606;2022-08-25T01:11:32;101625.35;;;15.05;70.56
49709;BME280;35601;55.902;13.606;2022-08-25T01:14:00;101625.78;;;15.32;69.77
49709;BME280;35601;55.902;13.606;2022-08-25T01:16:29;101628.18;;;15.14;72.18
49709;BME280;35601;55.902;13.606;2022-08-25T01:18:57;101627.97;;;14.95;72.55
49709;BME280;35601;55.902;13.606;2022-08-25T01:21:26;101633.01;;;14.64;73.15
49709;BME280;35601;55.902;13.606;2022-08-25T01:23:56;101638.33;;;14.77;73.68
49709;BME280;35601;55.902;13.606;2022-08-25T01:26:26;101636.43;;;14.85;72.89
49709;BME280;35601;55.902;13.606;2022-08-25T01:28:54;101635.79;;;14.75;73.31
49709;BME280;35601;55.902;13.606;2022-08-25T01:31:22;101638.19;;;14.91;73.13
49709;BME280;35601;55.902;13.606;2022-08-25T01:33:49;101635.01;;;15.15;73.26
49709;BME280;35601;55.902;13.606;2022-08-25T01:36:17;101633.12;;;15.28;72.86
49709;BME280;35601;55.902;13.606;2022-08-25T01:38:45;101631.68;;;15.39;72.44
49709;BME280;35601;55.902;13.606;2022-08-25T01:41:15;101629.57;;;15.53;72.33
49709;BME280;35601;55.902;13.606;2022-08-25T01:43:42;101632.64;;;15.61;72.28
49709;BME280;35601;55.902;13.606;2022-08-25T01:46:09;101633.51;;;15.47;72.07
49709;BME280;35601;55.902;13.606;2022-08-25T01:48:36;101627.93;;;15.55;71.83
49709;BME280;35601;55.902;13.606;2022-08-25T01:51:04;101624.88;;;15.76;71.24
49709;BME280;35601;55.902;13.606;2022-08-25T01:53:31;101623.38;;;15.75;71.21
49709;BME280;35601;55.902;13.606;2022-08-25T01:55:58;101623.21;;;15.46;71.08
49709;BME280;35601;55.902;13.606;2022-08-25T01:58:27;101627.66;;;15.48;70.46
49709;BME280;35601;55.902;13.606;2022-08-25T02:00:57;101628.63;;;15.33;69.80
49709;BME280;35601;55.902;13.606;2022-08-25T02:03:25;101630.03;;;15.58;69.08
49709;BME280;35601;55.902;13.606;2022-08-25T02:05:54;101629.17;;;15.54;68.56
49709;BME280;35601;55.902;13.606;2022-08-25T02:08:22;101626.26;;;15.88;67.85
49709;BME280;35601;55.902;13.606;2022-08-25T02:10:51;101626.52;;;15.87;67.82
49709;BME280;35601;55.902;13.606;2022-08-25T02:13:18;101625.96;;;15.87;67.63
49709;BME280;35601;55.902;13.606;2022-08-25T02:15:49;101624.26;;;15.73;66.58
49709;BME280;35601;55.902;13.606;2022-08-25T02:18:17;101621.86;;;15.36;66.79
49709;BME280;35601;55.902;13.606;2022-08-25T02:20:44;101621.45;;;15.57;66.49
49709;BME280;35601;55.902;13.606;2022-08-25T02:23:12;101619.58;;;15.55;66.55
49709;BME280;35601;55.902;13.606;2022-08-25T02:25:40;101616.27;;;15.38;66.52
49709;BME280;35601;55.902;13.606;2022-08-25T02:28:08;101618.51;;;15.69;66.77
49709;BME280;35601;55.902;13.606;2022-08-25T02:30:36;101620.27;;;15.14;66.32
49709;BME280;35601;55.902;13.606;2022-08-25T02:33:04;101619.01;;;15.25;66.62
49709;BME280;35601;55.902;13.606;2022-08-25T02:35:31;101616.84;;;15.31;66.20
49709;BME280;35601;55.902;13.606;2022-08-25T02:37:58;101616.33;;;15.29;65.93
49709;BME280;35601;55.902;13.606;2022-08-25T02:40:25;101614.96;;;15.52;65.83
49709;BME280;35601;55.902;13.606;2022-08-25T02:42:52;101614.89;;;15.18;65.77
49709;BME280;35601;55.902;13.606;2022-08-25T02:45:20;101613.16;;;15.17;66.19
49709;BME280;35601;55.902;13.606;2022-08-25T02:47:47;101615.21;;;15.31;66.25
49709;BME280;35601;55.902;13.606;2022-08-25T02:50:14;101620.99;;;15.35;67.69
49709;BME280;35601;55.902;13.606;2022-08-25T02:52:41;101620.60;;;15.11;68.32
49709;BME280;35601;55.902;13.606;2022-08-25T02:55:10;101623.86;;;15.20;68.91
49709;BME280;35601;55.902;13.606;2022-08-25T02:57:38;101626.04;;;15.18;68.48
49709;BME280;35601;55.902;13.606;2022-08-25T03:00:07;101624.30;;;15.31;68.07
49709;BME280;35601;55.902;13.606;2022-08-25T03:02:35;101621.68;;;15.32;67.77
49709;BME280;35601;55.902;13.606;2022-08-25T03:05:03;101621.38;;;15.09;67.69
49709;BME280;35601;55.902;13.606;2022-08-25T03:07:30;101620.83;;;15.41;67.60
49709;BME280;35601;55.902;13.606;2022-08-25T03:09:57;101626.69;;;15.54;67.38
49709;BME280;35601;55.902;13.606;2022-08-25T03:12:24;101630.69;;;15.54;67.45
49709;BME280;35601;55.902;13.606;2022-08-25T03:14:51;101634.58;;;15.16;68.03
49709;BME280;35601;55.902;13.606;2022-08-25T03:17:18;101642.61;;;15.39;67.89
49709;BME280;35601;55.902;13.606;2022-08-25T03:19:45;101642.60;;;15.26;67.88
49709;BME280;35601;55.902;13.606;2022-08-25T03:22:12;101644.88;;;15.17;67.49
49709;BME280;35601;55.902;13.606;2022-08-25T03:24:39;101638.03;;;15.40;67.11
49709;BME280;35601;55.902;13.606;2022-08-25T03:27:06;101630.31;;;15.58;66.49
49709;BME280;35601;55.902;13.606;2022-08-25T03:29:33;101628.88;;;15.68;65.77
49709;BME280;35601;55.902;13.606;2022-08-25T03:32:01;101629.10;;;15.54;66.58
49709;BME280;35601;55.902;13.606;2022-08-25T03:34:29;101627.93;;;15.32;67.43
49709;BME280;35601;55.902;13.606;2022-08-25T03:36:57;101626.45;;;14.99;67.38
49709;BME280;35601;55.902;13.606;2022-08-25T03:39:25;101627.51;;;15.21;67.33
49709;BME280;35601;55.902;13.606;2022-08-25T03:41:52;101625.73;;;15.20;67.53
49709;BME280;35601;55.902;13.606;2022-08-25T03:44:20;101624.93;;;15.06;67.95
49709;BME280;35601;55.902;13.606;2022-08-25T03:46:49;101624.05;;;15.02;68.13
49709;BME280;35601;55.902;13.606;2022-08-25T03:49:20;101620.22;;;15.27;67.06
49709;BME280;35601;55.902;13.606;2022-08-25T03:51:49;101617.17;;;15.18;67.76
49709;BME280;35601;55.902;13.606;2022-08-25T03:54:18;101611.58;;;15.29;67.32
49709;BME280;35601;55.902;13.606;2022-08-25T03:56:46;101606.69;;;15.27;66.99
49709;BME280;35601;55.902;13.606;2022-08-25T03:59:13;101607.90;;;15.10;67.38
49709;BME280;35601;55.902;13.606;2022-08-25T04:01:41;101607.14;;;15.20;69.28
49709;BME280;35601;55.902;13.606;2022-08-25T04:04:11;101608.99;;;14.70;71.26
49709;BME280;35601;55.902;13.606;2022-08-25T04:06:38;101605.44;;;14.66;72.59
49709;BME280;35601;55.902;13.606;2022-08-25T04:09:06;101605.16;;;14.66;72.02
49709;BME280;35601;55.902;13.606;2022-08-25T04:11:33;101602.66;;;14.78;71.93
49709;BME280;35601;55.902;13.606;2022-08-25T04:14:01;101604.46;;;14.61;73.08
49709;BME280;35601;55.902;13.606;2022-08-25T04:16:30;101606.41;;;14.68;73.32
49709;BME280;35601;55.902;13.606;2022-08-25T04:18:59;101604.90;;;14.74;74.23
49709;BME280;35601;55.902;13.606;2022-08-25T04:21:27;101607.68;;;14.76;73.51
49709;BME280;35601;55.902;13.606;2022-08-25T04:23:55;101608.52;;;14.78;73.67
49709;BME280;35601;55.902;13.606;2022-08-25T04:26:26;101609.48;;;14.85;73.56
49709;BME280;35601;55.902;13.606;2022-08-25T04:28:56;101609.64;;;15.13;73.31
49709;BME280;35601;55.902;13.606;2022-08-25T04:31:24;101604.43;;;15.44;72.13
49709;BME280;35601;55.902;13.606;2022-08-25T04:33:51;101607.43;;;15.05;73.99
49709;BME280;35601;55.902;13.606;2022-08-25T04:36:19;101603.52;;;15.56;72.76
49709;BME280;35601;55.902;13.606;2022-08-25T04:38:47;101606.46;;;14.60;76.02
49709;BME280;35601;55.902;13.606;2022-08-25T04:41:18;101599.16;;;15.38;74.28
49709;BME280;35601;55.902;13.606;2022-08-25T04:43:45;101599.00;;;15.44;74.17
49709;BME280;35601;55.902;13.606;2022-08-25T04:46:14;101599.99;;;15.57;74.05
49709;BME280;35601;55.902;13.606;2022-08-25T04:48:43;101594.77;;;15.26;74.85
49709;BME280;35601;55.902;13.606;2022-08-25T04:51:13;101594.48;;;15.68;74.45
49709;BME280;35601;55.902;13.606;2022-08-25T04:53:41;101592.87;;;15.82;74.28
49709;BME280;35601;55.902;13.606;2022-08-25T04:56:11;101590.60;;;15.67;74.64
49709;BME280;35601;55.902;13.606;2022-08-25T04:58:40;101588.33;;;15.60;75.36
49709;BME280;35601;55.902;13.606;2022-08-25T05:01:09;101586.67;;;16.19;74.46
49709;BME280;35601;55.902;13.606;2022-08-25T05:03:36;101584.76;;;15.70;75.40
49709;BME280;35601;55.902;13.606;2022-08-25T05:06:04;101583.10;;;15.52;77.26
49709;BME280;35601;55.902;13.606;2022-08-25T05:08:31;101582.57;;;16.27;74.95
49709;BME280;35601;55.902;13.606;2022-08-25T05:11:03;101581.91;;;16.25;75.45
49709;BME280;35601;55.902;13.606;2022-08-25T05:13:30;101579.89;;;16.57;74.50
49709;BME280;35601;55.902;13.606;2022-08-25T05:15:58;101579.19;;;16.50;74.12
49709;BME280;35601;55.902;13.606;2022-08-25T05:18:28;101585.74;;;16.36;74.25
49709;BME280;35601;55.902;13.606;2022-08-25T05:20:56;101587.30;;;15.96;75.17
49709;BME280;35601;55.902;13.606;2022-08-25T05:23:27;101587.46;;;16.70;73.38
49709;BME280;35601;55.902;13.606;2022-08-25T05:25:54;101588.86;;;16.05;75.51
49709;BME280;35601;55.902;13.606;2022-08-25T05:28:21;101587.42;;;16.62;74.50
49709;BME280;35601;55.902;13.606;2022-08-25T05:30:48;101583.42;;;16.87;75.43
49709;BME280;35601;55.902;13.606;2022-08-25T05:33:16;101581.73;;;17.24;75.43
49709;BME280;35601;55.902;13.606;2022-08-25T05:35:43;101586.31;;;16.85;75.09
49709;BME280;35601;55.902;13.606;2022-08-25T05:38:11;101583.03;;;16.97;75.86
49709;BME280;35601;55.902;13.606;2022-08-25T05:40:38;101587.35;;;16.44;75.94
49709;BME280;35601;55.902;13.606;2022-08-25T05:43:05;101584.92;;;16.82;76.68
49709;BME280;35601;55.902;13.606;2022-08-25T05:45:31;101590.72;;;16.12;77.43
49709;BME280;35601;55.902;13.606;2022-08-25T05:47:58;101588.39;;;17.59;74.33
49709;BME280;35601;55.902;13.606;2022-08-25T05:50:25;101591.69;;;16.76;76.06
49709;BME280;35601;55.902;13.606;2022-08-25T05:52:52;101595.79;;;16.30;77.87
49709;BME280;35601;55.902;13.606;2022-08-25T05:55:19;101593.19;;;16.17;78.78
49709;BME280;35601;55.902;13.606;2022-08-25T05:57:47;101589.47;;;16.91;77.42
49709;BME280;35601;55.902;13.606;2022-08-25T06:00:14;101591.67;;;17.15;75.71
49709;BME280;35601;55.902;13.606;2022-08-25T06:02:42;101593.92;;;17.36;75.23
49709;BME280;35601;55.902;13.606;2022-08-25T06:05:11;101601.23;;;17.67;75.33
49709;BME280;35601;55.902;13.606;2022-08-25T06:07:39;101600.13;;;17.26;74.79
49709;BME280;35601;55.902;13.606;2022-08-25T06:10:08;101598.18;;;17.51;76.07
49709;BME280;35601;55.902;13.606;2022-08-25T06:12:35;101596.95;;;17.85;73.90
49709;BME280;35601;55.902;13.606;2022-08-25T06:15:03;101599.26;;;17.27;75.12
49709;BME280;35601;55.902;13.606;2022-08-25T06:17:30;101603.73;;;17.72;74.97
49709;BME280;35601;55.902;13.606;2022-08-25T06:19:57;101602.89;;;18.36;72.73
49709;BME280;35601;55.902;13.606;2022-08-25T06:22:24;101604.73;;;18.10;74.23
49709;BME280;35601;55.902;13.606;2022-08-25T06:24:51;101606.15;;;18.44;72.08
49709;BME280;35601;55.902;13.606;2022-08-25T06:27:18;101605.95;;;18.97;69.92
49709;BME280;35601;55.902;13.606;2022-08-25T06:29:45;101610.04;;;18.92;69.30
49709;BME280;35601;55.902;13.606;2022-08-25T06:32:12;101612.04;;;18.87;70.31
49709;BME280;35601;55.902;13.606;2022-08-25T06:34:39;101617.98;;;18.35;72.41
49709;BME280;35601;55.902;13.606;2022-08-25T06:37:06;101612.41;;;18.70;70.62
49709;BME280;35601;55.902;13.606;2022-08-25T06:39:33;101614.62;;;18.76;71.41
49709;BME280;35601;55.902;13.606;2022-08-25T06:42:00;101620.36;;;18.65;72.83
49709;BME280;35601;55.902;13.606;2022-08-25T06:44:28;101620.71;;;16.63;78.16
49709;BME280;35601;55.902;13.606;2022-08-25T06:46:55;101625.29;;;18.02;75.61
49709;BME280;35601;55.902;13.606;2022-08-25T06:49:23;101620.12;;;18.06;74.70
49709;BME280;35601;55.902;13.606;2022-08-25T06:51:49;101623.95;;;18.30;74.56
49709;BME280;35601;55.902;13.606;2022-08-25T06:54:16;101625.07;;;18.68;72.94
49709;BME280;35601;55.902;13.606;2022-08-25T06:56:43;101620.01;;;19.17;70.68
49709;BME280;35601;55.902;13.606;2022-08-25T06:59:10;101625.69;;;18.63;73.32
49709;BME280;35601;55.902;13.606;2022-08-25T07:01:37;101618.24;;;19.01;72.69
49709;BME280;35601;55.902;13.606;2022-08-25T07:04:05;101619.41;;;19.26;72.17
49709;BME280;35601;55.902;13.606;2022-08-25T07:06:34;101620.89;;;19.13;69.96
49709;BME280;35601;55.902;13.606;2022-08-25T07:09:02;101618.15;;;18.90;70.21
49709;BME280;35601;55.902;13.606;2022-08-25T07:11:29;101616.52;;;19.22;68.76
49709;BME280;35601;55.902;13.606;2022-08-25T07:13:56;101616.51;;;19.97;67.47
49709;BME280;35601;55.902;13.606;2022-08-25T07:16:23;101620.05;;;18.67;72.12
49709;BME280;35601;55.902;13.606;2022-08-25T07:18:50;101619.56;;;20.38;66.55
49709;BME280;35601;55.902;13.606;2022-08-25T07:21:17;101625.43;;;20.26;65.94
49709;BME280;35601;55.902;13.606;2022-08-25T07:23:44;101624.38;;;20.56;65.59
49709;BME280;35601;55.902;13.606;2022-08-25T07:26:13;101624.81;;;20.82;63.50
49709;BME280;35601;55.902;13.606;2022-08-25T07:28:40;101621.34;;;20.26;63.26
49709;BME280;35601;55.902;13.606;2022-08-25T07:31:07;101617.86;;;21.11;62.92
49709;BME280;35601;55.902;13.606;2022-08-25T07:33:34;101615.74;;;20.82;63.13
49709;BME280;35601;55.902;13.606;2022-08-25T07:36:03;101615.42;;;18.48;67.74
49709;BME280;35601;55.902;13.606;2022-08-25T07:38:30;101615.88;;;19.72;65.84
49709;BME280;35601;55.902;13.606;2022-08-25T07:41:01;101611.52;;;19.92;63.81
49709;BME280;35601;55.902;13.606;2022-08-25T07:43:28;101612.34;;;20.50;63.70
49709;BME280;35601;55.902;13.606;2022-08-25T07:45:55;101607.29;;;19.70;64.84
49709;BME280;35601;55.902;13.606;2022-08-25T07:48:22;101608.54;;;20.28;63.89
49709;BME280;35601;55.902;13.606;2022-08-25T07:50:49;101611.79;;;21.08;62.05
49709;BME280;35601;55.902;13.606;2022-08-25T07:53:17;101607.03;;;20.65;61.25
49709;BME280;35601;55.902;13.606;2022-08-25T07:55:44;101606.14;;;20.87;61.40
49709;BME280;35601;55.902;13.606;2022-08-25T07:58:11;101606.55;;;21.42;59.00
49709;BME280;35601;55.902;13.606;2022-08-25T08:00:38;101609.75;;;20.63;60.77
49709;BME280;35601;55.902;13.606;2022-08-25T08:03:06;101612.43;;;21.04;59.58
49709;BME280;35601;55.902;13.606;2022-08-25T08:05:35;101612.13;;;20.73;60.52
49709;BME280;35601;55.902;13.606;2022-08-25T08:08:05;101610.85;;;21.74;58.42
49709;BME280;35601;55.902;13.606;2022-08-25T08:10:32;101607.20;;;21.16;59.84
49709;BME280;35601;55.902;13.606;2022-08-25T08:12:59;101604.25;;;22.30;57.96
49709;BME280;35601;55.902;13.606;2022-08-25T08:15:27;101602.05;;;22.52;55.05
49709;BME280;35601;55.902;13.606;2022-08-25T08:17:55;101599.28;;;21.96;56.34
49709;BME280;35601;55.902;13.606;2022-08-25T08:20:22;101589.71;;;21.28;57.25
49709;BME280;35601;55.902;13.606;2022-08-25T08:22:48;101585.94;;;22.13;55.21
49709;BME280;35601;55.902;13.606;2022-08-25T08:25:16;101593.34;;;22.22;56.33
49709;BME280;35601;55.902;13.606;2022-08-25T08:27:43;101587.76;;;23.87;51.50
49709;BME280;35601;55.902;13.606;2022-08-25T08:30:12;101590.82;;;22.16;54.48
49709;BME280;35601;55.902;13.606;2022-08-25T08:32:39;101583.47;;;22.71;52.01
49709;BME280;35601;55.902;13.606;2022-08-25T08:35:07;101583.96;;;23.79;50.21
49709;BME280;35601;55.902;13.606;2022-08-25T08:37:35;101584.70;;;24.77;48.47
49709;BME280;35601;55.902;13.606;2022-08-25T08:40:03;101584.00;;;24.52;47.48
49709;BME280;35601;55.902;13.606;2022-08-25T08:42:44;101582.07;;;23.92;48.76
49709;BME280;35601;55.902;13.606;2022-08-25T08:45:25;101583.33;;;24.02;48.82
49709;BME280;35601;55.902;13.606;2022-08-25T08:48:05;101580.96;;;22.72;49.92
49709;BME280;35601;55.902;13.606;2022-08-25T08:50:44;101584.36;;;21.53;52.31
49709;BME280;35601;55.902;13.606;2022-08-25T08:56:03;101587.16;;;21.68;51.60
49709;BME280;35601;55.902;13.606;2022-08-25T08:58:39;101584.95;;;21.79;52.41
49709;BME280;35601;55.902;13.606;2022-08-25T09:01:10;101584.76;;;21.94;52.41
49709;BME280;35601;55.902;13.606;2022-08-25T09:03:41;101587.58;;;21.66;52.13
49709;BME280;35601;55.902;13.606;2022-08-25T09:06:12;101583.33;;;22.48;50.10
49709;BME280;35601;55.902;13.606;2022-08-25T09:08:43;101578.31;;;21.04;53.25
49709;BME280;35601;55.902;13.606;2022-08-25T09:11:19;101579.45;;;22.93;50.34
49709;BME280;35601;55.902;13.606;2022-08-25T09:14:03;101570.61;;;22.37;49.68
49709;BME280;35601;55.902;13.606;2022-08-25T09:16:40;101564.59;;;21.25;51.66
49709;BME280;35601;55.902;13.606;2022-08-25T09:19:18;101559.33;;;23.08;49.80
49709;BME280;35601;55.902;13.606;2022-08-25T09:21:53;101557.57;;;23.60;48.00
49709;BME280;35601;55.902;13.606;2022-08-25T09:24:34;101555.58;;;24.58;45.96
49709;BME280;35601;55.902;13.606;2022-08-25T09:27:11;101558.86;;;24.95;44.99
49709;BME280;35601;55.902;13.606;2022-08-25T09:29:53;101562.44;;;23.34;46.73
49709;BME280;35601;55.902;13.606;2022-08-25T09:32:23;101554.63;;;24.27;44.16
49709;BME280;35601;55.902;13.606;2022-08-25T09:34:51;101556.29;;;24.29;44.16
49709;BME280;35601;55.902;13.606;2022-08-25T09:37:21;101553.11;;;23.18;43.73
49709;BME280;35601;55.902;13.606;2022-08-25T09:39:48;101554.20;;;22.35;46.01
49709;BME280;35601;55.902;13.606;2022-08-25T09:42:17;101544.14;;;24.25;44.08
49709;BME280;35601;55.902;13.606;2022-08-25T09:44:46;101536.18;;;24.91;42.72
49709;BME280;35601;55.902;13.606;2022-08-25T09:47:21;101529.59;;;25.51;42.19
49709;BME280;35601;55.902;13.606;2022-08-25T09:49:50;101531.06;;;25.51;41.96
49709;BME280;35601;55.902;13.606;2022-08-25T09:52:28;101533.94;;;26.36;40.12
49709;BME280;35601;55.902;13.606;2022-08-25T09:54:58;101535.17;;;25.85;40.11
49709;BME280;35601;55.902;13.606;2022-08-25T09:57:30;101525.63;;;25.33;40.87
49709;BME280;35601;55.902;13.606;2022-08-25T10:00:11;101528.79;;;24.33;41.47
49709;BME280;35601;55.902;13.606;2022-08-25T10:02:40;101525.34;;;24.35;41.26
49709;BME280;35601;55.902;13.606;2022-08-25T10:05:24;101522.32;;;24.50;43.08
49709;BME280;35601;55.902;13.606;2022-08-25T10:07:55;101520.77;;;22.48;45.51
49709;BME280;35601;55.902;13.606;2022-08-25T10:10:28;101523.41;;;23.17;46.88
49709;BME280;35601;55.902;13.606;2022-08-25T10:12:56;101523.16;;;23.29;46.03
49709;BME280;35601;55.902;13.606;2022-08-25T10:15:26;101526.05;;;23.76;45.26
49709;BME280;35601;55.902;13.606;2022-08-25T10:17:54;101526.58;;;23.76;45.41
49709;BME280;35601;55.902;13.606;2022-08-25T10:20:23;101527.18;;;22.92;47.30
49709;BME280;35601;55.902;13.606;2022-08-25T10:22:52;101530.24;;;21.83;50.00
49709;BME280;35601;55.902;13.606;2022-08-25T10:25:35;101527.89;;;21.35;53.08
49709;BME280;35601;55.902;13.606;2022-08-25T10:28:10;101514.25;;;23.00;50.03
49709;BME280;35601;55.902;13.606;2022-08-25T10:30:50;101511.86;;;22.45;52.02
49709;BME280;35601;55.902;13.606;2022-08-25T10:33:29;101504.30;;;22.93;49.85
49709;BME280;35601;55.902;13.606;2022-08-25T10:36:06;101509.20;;;22.97;50.95
49709;BME280;35601;55.902;13.606;2022-08-25T10:38:39;101504.12;;;23.13;49.51
49709;BME280;35601;55.902;13.606;2022-08-25T10:41:20;101504.10;;;22.06;50.58
49709;BME280;35601;55.902;13.606;2022-08-25T10:43:53;101502.90;;;23.04;49.71
49709;BME280;35601;55.902;13.606;2022-08-25T10:46:30;101501.38;;;23.84;47.99
49709;BME280;35601;55.902;13.606;2022-08-25T10:49:03;101505.76;;;23.29;49.15
49709;BME280;35601;55.902;13.606;2022-08-25T10:51:43;101507.05;;;23.38;48.26
49709;BME280;35601;55.902;13.606;2022-08-25T10:54:24;101507.03;;;22.61;50.85
49709;BME280;35601;55.902;13.606;2022-08-25T10:57:04;101510.79;;;23.67;48.92
49709;BME280;35601;55.902;13.606;2022-08-25T10:59:57;101512.25;;;22.71;49.61
49709;BME280;35601;55.902;13.606;2022-08-25T11:02:57;101519.92;;;21.87;51.64
49709;BME280;35601;55.902;13.606;2022-08-25T11:05:29;101508.82;;;22.27;50.80
49709;BME280;35601;55.902;13.606;2022-08-25T11:08:05;101507.91;;;21.80;53.22
49709;BME280;35601;55.902;13.606;2022-08-25T11:10:39;101511.60;;;21.92;52.69
49709;BME280;35601;55.902;13.606;2022-08-25T11:13:15;101506.35;;;22.13;53.31
49709;BME280;35601;55.902;13.606;2022-08-25T11:15:51;101504.54;;;22.98;51.05
49709;BME280;35601;55.902;13.606;2022-08-25T11:18:19;101502.56;;;23.42;49.94
49709;BME280;35601;55.902;13.606;2022-08-25T11:20:54;101506.77;;;22.66;50.76
49709;BME280;35601;55.902;13.606;2022-08-25T11:23:26;101507.32;;;22.60;50.75
49709;BME280;35601;55.902;13.606;2022-08-25T11:25:59;101507.86;;;23.68;49.52
49709;BME280;35601;55.902;13.606;2022-08-25T11:28:31;101507.23;;;23.41;49.69
49709;BME280;35601;55.902;13.606;2022-08-25T11:31:02;101507.76;;;22.57;50.74
49709;BME280;35601;55.902;13.606;2022-08-25T11:33:30;101511.92;;;21.18;53.55
49709;BME280;35601;55.902;13.606;2022-08-25T11:36:01;101509.22;;;23.07;50.68
49709;BME280;35601;55.902;13.606;2022-08-25T11:38:39;101505.93;;;22.29;52.47
49709;BME280;35601;55.902;13.606;2022-08-25T11:41:19;101509.95;;;21.70;54.29
49709;BME280;35601;55.902;13.606;2022-08-25T11:44:07;101504.75;;;22.47;52.78
49709;BME280;35601;55.902;13.606;2022-08-25T11:46:49;101496.50;;;22.54;52.21
49709;BME280;35601;55.902;13.606;2022-08-25T11:49:35;101501.02;;;21.97;53.23
49709;BME280;35601;55.902;13.606;2022-08-25T11:52:47;101496.45;;;22.04;53.13
49709;BME280;35601;55.902;13.606;2022-08-25T11:55:20;101495.48;;;21.43;53.51
49709;BME280;35601;55.902;13.606;2022-08-25T11:57:50;101492.70;;;22.70;52.90
49709;BME280;35601;55.902;13.606;2022-08-25T12:00:36;101491.79;;;22.38;52.58
49709;BME280;35601;55.902;13.606;2022-08-25T12:04:13;101493.08;;;21.91;52.35
49709;BME280;35601;55.902;13.606;2022-08-25T12:09:17;101487.72;;;23.43;51.65
49709;BME280;35601;55.902;13.606;2022-08-25T12:11:49;101484.98;;;22.84;51.25
49709;BME280;35601;55.902;13.606;2022-08-25T12:14:40;101487.27;;;23.62;49.06
49709;BME280;35601;55.902;13.606;2022-08-25T12:17:19;101486.27;;;22.65;51.46
49709;BME280;35601;55.902;13.606;2022-08-25T12:19:51;101484.92;;;22.41;51.97
49709;BME280;35601;55.902;13.606;2022-08-25T12:22:55;101476.80;;;24.10;48.90
49709;BME280;35601;55.902;13.606;2022-08-25T12:25:31;101480.82;;;22.79;51.13
49709;BME280;35601;55.902;13.606;2022-08-25T12:28:05;101483.54;;;23.26;50.11
49709;BME280;35601;55.902;13.606;2022-08-25T12:30:41;101483.14;;;23.28;51.26
49709;BME280;35601;55.902;13.606;2022-08-25T12:33:20;101480.47;;;22.15;53.40
49709;BME280;35601;55.902;13.606;2022-08-25T12:35:55;101481.88;;;22.21;53.87
49709;BME280;35601;55.902;13.606;2022-08-25T12:38:29;101479.02;;;21.26;56.02
49709;BME280;35601;55.902;13.606;2022-08-25T12:41:02;101469.83;;;22.39;53.68
49709;BME280;35601;55.902;13.606;2022-08-25T12:43:34;101464.06;;;22.82;53.46
49709;BME280;35601;55.902;13.606;2022-08-25T12:46:37;101457.83;;;22.96;53.24
49709;BME280;35601;55.902;13.606;2022-08-25T12:49:11;101459.37;;;23.25;51.67
49709;BME280;35601;55.902;13.606;2022-08-25T12:51:57;101454.96;;;22.03;54.73
49709;BME280;35601;55.902;13.606;2022-08-25T12:54:41;101455.61;;;22.32;53.25
49709;BME280;35601;55.902;13.606;2022-08-25T12:57:23;101451.99;;;22.79;53.75
49709;BME280;35601;55.902;13.606;2022-08-25T12:59:53;101450.52;;;22.10;54.28
49709;BME280;35601;55.902;13.606;2022-08-25T13:05:04;101445.47;;;22.41;54.29
49709;BME280;35601;55.902;13.606;2022-08-25T13:07:53;101446.44;;;22.42;52.61